Time;durP1;ratioP1;P1;durP2;ratioP2;P2;SDS_P1;SDS_P2;PMS_P1;PMS_P2;Temp;Humidity;BMP_temperature;BMP_pressure;BME280_temperature;BME280_humidity;BME280_pressure;Samples;Min_cycle;Max_cycle;Signal;HPM_P1;HPM_P2
2023/07/14 00:00:36;;;;;;;9.52;8.60;;;17.10;99.90;;;;;;5044960;28;20073;-73
2023/07/14 00:03:04;;;;;;;11.05;9.93;;;17.10;99.90;;;;;;5041582;28;20052;-73
2023/07/14 00:05:34;;;;;;;10.73;8.80;;;17.10;99.90;;;;;;5045679;28;20094;-73
2023/07/14 00:08:01;;;;;;;12.00;9.07;;;17.10;99.90;;;;;;5042035;28;20110;-73
2023/07/14 00:10:33;;;;;;;9.85;8.85;;;17.00;99.90;;;;;;5046982;28;20072;-72
2023/07/14 00:13:02;;;;;;;11.68;10.00;;;17.00;99.90;;;;;;5023532;28;21894;-72
2023/07/14 00:15:34;;;;;;;13.25;9.50;;;17.00;99.90;;;;;;5019802;28;20056;-72
2023/07/14 00:18:20;;;;;;;10.65;9.32;;;17.00;99.90;;;;;;5047683;28;21226;-72
2023/07/14 00:20:46;;;;;;;12.57;9.93;;;17.10;99.90;;;;;;5047294;28;20457;-75
2023/07/14 00:23:13;;;;;;;10.70;9.20;;;17.00;99.90;;;;;;5028122;28;20052;-74
2023/07/14 00:25:40;;;;;;;10.77;9.55;;;17.10;99.90;;;;;;5020939;28;20303;-73
2023/07/14 00:28:15;;;;;;;11.68;9.95;;;17.00;99.90;;;;;;5045447;28;20066;-73
2023/07/14 00:30:41;;;;;;;12.65;9.80;;;17.10;99.90;;;;;;5023581;28;20049;-74
2023/07/14 00:33:18;;;;;;;11.40;9.13;;;17.10;99.90;;;;;;5026601;28;20057;-74
2023/07/14 00:35:45;;;;;;;12.88;9.05;;;17.00;99.90;;;;;;5028823;28;20055;-73
2023/07/14 00:38:11;;;;;;;12.00;9.48;;;17.00;99.90;;;;;;5042216;28;20083;-73
2023/07/14 00:40:42;;;;;;;10.63;9.63;;;16.90;99.90;;;;;;5041175;28;20070;-74
2023/07/14 00:43:29;;;;;;;10.98;9.70;;;16.90;99.90;;;;;;5043199;28;20128;-73
2023/07/14 00:45:57;;;;;;;11.43;10.10;;;16.90;99.90;;;;;;5038411;28;20057;-74
2023/07/14 00:48:25;;;;;;;11.82;9.85;;;16.90;99.90;;;;;;5025722;28;20049;-74
2023/07/14 00:51:12;;;;;;;13.93;10.90;;;16.90;99.90;;;;;;5044949;28;20033;-75
2023/07/14 00:53:39;;;;;;;;;;;16.90;99.90;;;;;;5048284;28;20040;-74
2023/07/14 00:56:11;;;;;;;12.32;10.38;;;16.90;99.90;;;;;;5031688;28;19924;-75
2023/07/14 00:58:39;;;;;;;12.43;11.00;;;16.90;99.90;;;;;;5044421;28;20053;-73
2023/07/14 01:01:21;;;;;;;12.35;11.07;;;16.90;99.90;;;;;;5029597;28;20135;-75
2023/07/14 01:03:51;;;;;;;13.18;11.82;;;16.90;99.90;;;;;;5048082;28;20049;-74
2023/07/14 01:06:19;;;;;;;13.20;11.90;;;16.80;99.90;;;;;;5023363;28;21775;-74
2023/07/14 01:08:53;;;;;;;13.82;12.43;;;16.80;99.90;;;;;;5047132;28;20062;-75
2023/07/14 01:11:24;;;;;;;13.07;11.82;;;16.80;99.90;;;;;;5033113;28;20084;-74
2023/07/14 01:13:49;;;;;;;13.02;11.75;;;16.70;99.90;;;;;;5056047;28;20052;-74
2023/07/14 01:16:16;;;;;;;13.88;12.50;;;16.70;99.90;;;;;;5047903;28;20150;-75
2023/07/14 01:18:43;;;;;;;13.60;12.23;;;16.70;99.90;;;;;;5036910;28;20052;-75
2023/07/14 01:21:09;;;;;;;;;;;16.60;99.90;;;;;;5052917;28;20128;-75
2023/07/14 01:23:38;;;;;;;13.45;11.77;;;16.60;99.90;;;;;;5045005;28;20025;-75
2023/07/14 01:26:41;;;;;;;12.38;11.07;;;16.60;99.90;;;;;;5030159;28;20056;-73
2023/07/14 01:29:08;;;;;;;13.65;12.35;;;16.60;99.90;;;;;;5033725;28;20507;-73
2023/07/14 01:31:35;;;;;;;13.10;11.80;;;16.60;99.90;;;;;;5033481;28;20040;-73
2023/07/14 01:34:02;;;;;;;13.45;12.15;;;16.60;99.90;;;;;;5048402;28;20057;-73
2023/07/14 01:36:29;;;;;;;13.93;12.60;;;16.60;99.90;;;;;;5048837;28;20049;-75
2023/07/14 01:38:55;;;;;;;12.57;11.38;;;16.60;99.90;;;;;;5054912;28;20450;-72
2023/07/14 01:41:21;;;;;;;13.27;12.05;;;16.60;99.90;;;;;;5027225;28;20057;-72
2023/07/14 01:43:48;;;;;;;13.70;12.40;;;16.50;99.90;;;;;;5028695;28;20510;-72
2023/07/14 01:46:20;;;;;;;13.83;12.43;;;16.60;99.90;;;;;;5052948;28;20040;-72
2023/07/14 01:48:58;;;;;;;13.73;12.35;;;16.60;99.90;;;;;;5050287;28;20052;-72
2023/07/14 01:51:35;;;;;;;13.65;12.25;;;16.60;99.90;;;;;;5045576;28;20052;-72
2023/07/14 01:54:04;;;;;;;;;;;16.60;99.90;;;;;;5044448;28;20144;-74
2023/07/14 01:56:32;;;;;;;13.38;12.15;;;16.60;99.90;;;;;;5027000;28;19920;-73
2023/07/14 01:59:01;;;;;;;13.10;11.40;;;16.50;99.90;;;;;;5028470;28;20079;-72
2023/07/14 02:01:28;;;;;;;13.38;12.07;;;16.50;99.90;;;;;;5033011;28;20063;-72
2023/07/14 02:03:55;;;;;;;;;;;16.50;99.90;;;;;;5026920;28;20102;-73
2023/07/14 02:06:22;;;;;;;14.35;12.95;;;16.50;99.90;;;;;;5033137;28;19924;-72
2023/07/14 02:08:48;;;;;;;15.27;12.43;;;16.50;99.90;;;;;;5038698;28;20056;-73
2023/07/14 02:11:19;;;;;;;14.27;12.00;;;16.50;99.90;;;;;;5037014;28;20098;-73
2023/07/14 02:13:46;;;;;;;13.05;11.75;;;16.50;99.90;;;;;;5051019;28;20497;-73
2023/07/14 02:16:14;;;;;;;13.85;12.50;;;16.40;99.90;;;;;;5028708;28;20064;-73
2023/07/14 02:18:43;;;;;;;13.23;11.90;;;16.40;99.90;;;;;;5041986;28;20476;-75
2023/07/14 02:21:10;;;;;;;13.32;12.02;;;16.40;99.90;;;;;;5030811;28;20056;-74
2023/07/14 02:23:37;;;;;;;;;;;16.30;99.90;;;;;;5050619;28;20051;-74
2023/07/14 02:26:09;;;;;;;;;;;16.30;99.90;;;;;;5046625;28;19967;-76
2023/07/14 02:28:35;;;;;;;14.05;12.65;;;16.20;99.90;;;;;;5030836;28;19935;-74
2023/07/14 02:31:18;;;;;;;15.68;12.90;;;16.20;99.90;;;;;;5024787;28;20048;-75
2023/07/14 02:33:49;;;;;;;15.52;12.85;;;16.20;99.90;;;;;;5052022;28;20037;-75
2023/07/14 02:36:32;;;;;;;15.50;12.88;;;16.20;99.90;;;;;;5034046;28;20036;-74
2023/07/14 02:38:59;;;;;;;14.20;12.60;;;16.20;99.90;;;;;;5043122;28;20573;-75
2023/07/14 02:41:38;;;;;;;14.63;13.00;;;16.20;99.90;;;;;;5056234;28;20119;-74
2023/07/14 02:44:07;;;;;;;17.88;12.68;;;16.20;99.90;;;;;;5049962;28;20057;-74
2023/07/14 02:46:43;;;;;;;14.10;12.60;;;16.10;99.90;;;;;;5047777;28;20052;-75
2023/07/14 02:49:10;;;;;;;14.03;12.73;;;16.10;99.90;;;;;;5030502;28;20048;-75
2023/07/14 02:51:36;;;;;;;14.82;12.60;;;16.10;99.90;;;;;;5046919;28;20161;-75
2023/07/14 02:54:04;;;;;;;15.65;12.48;;;16.00;99.90;;;;;;5048709;28;20131;-75
2023/07/14 02:56:30;;;;;;;;;;;16.00;99.90;;;;;;5039247;28;20044;-75
2023/07/14 02:58:56;;;;;;;16.30;12.77;;;16.00;99.90;;;;;;5042349;28;19928;-74
2023/07/14 03:01:22;;;;;;;15.98;12.75;;;16.00;99.90;;;;;;5045095;28;20674;-74
2023/07/14 03:03:48;;;;;;;14.35;12.80;;;16.00;99.90;;;;;;5048951;28;20500;-75
2023/07/14 03:06:17;;;;;;;14.80;13.15;;;15.90;99.90;;;;;;5044314;28;20059;-76
2023/07/14 03:08:43;;;;;;;13.82;12.15;;;15.90;99.90;;;;;;5033580;28;20059;-74
2023/07/14 03:11:10;;;;;;;19.17;12.98;;;15.90;99.90;;;;;;5049931;28;20505;-74
2023/07/14 03:13:36;;;;;;;15.07;13.37;;;15.80;99.90;;;;;;5040593;28;20103;-76
2023/07/14 03:16:03;;;;;;;15.30;13.30;;;15.80;99.90;;;;;;5040655;28;22220;-74
2023/07/14 03:18:29;;;;;;;15.60;13.02;;;15.70;99.90;;;;;;5046336;28;20430;-75
2023/07/14 03:21:00;;;;;;;15.10;13.17;;;15.80;99.90;;;;;;5033003;28;20053;-75
2023/07/14 03:23:26;;;;;;;17.80;13.82;;;15.80;99.90;;;;;;5045793;28;20202;-74
2023/07/14 03:25:53;;;;;;;15.82;14.23;;;15.80;99.90;;;;;;5030099;28;20488;-76
2023/07/14 03:28:19;;;;;;;15.27;13.80;;;15.90;99.90;;;;;;5039393;28;20182;-76
2023/07/14 03:30:45;;;;;;;16.45;14.75;;;15.90;99.90;;;;;;5032357;28;20055;-77
2023/07/14 03:33:10;;;;;;;16.00;14.40;;;16.00;99.90;;;;;;5044143;28;20048;-75
2023/07/14 03:35:36;;;;;;;15.07;13.48;;;16.00;99.90;;;;;;5049347;28;20076;-73
2023/07/14 03:38:04;;;;;;;15.75;14.25;;;16.00;99.90;;;;;;5045116;28;20724;-75
2023/07/14 03:40:30;;;;;;;15.35;13.95;;;16.00;99.90;;;;;;5050589;28;20041;-73
2023/07/14 03:42:56;;;;;;;15.82;14.20;;;16.10;99.90;;;;;;5022503;28;20076;-73
2023/07/14 03:45:22;;;;;;;16.67;14.68;;;16.10;99.90;;;;;;5034919;28;20064;-75
2023/07/14 03:47:49;;;;;;;14.90;13.50;;;16.20;99.90;;;;;;5035057;28;20044;-73
2023/07/14 03:50:15;;;;;;;15.73;14.13;;;16.20;99.90;;;;;;5024402;28;20743;-74
2023/07/14 03:52:44;;;;;;;15.52;14.02;;;16.20;99.90;;;;;;5026021;28;20295;-74
2023/07/14 03:55:11;;;;;;;16.65;15.05;;;16.20;99.90;;;;;;5019290;28;20487;-74
2023/07/14 03:57:36;;;;;;;16.27;14.68;;;16.30;99.90;;;;;;5051443;28;20499;-73
2023/07/14 04:00:12;;;;;;;16.73;14.95;;;16.20;99.90;;;;;;5042437;28;20063;-73
2023/07/14 04:02:39;;;;;;;16.02;14.65;;;16.30;99.90;;;;;;5044986;28;20465;-73
2023/07/14 04:05:07;;;;;;;16.83;15.10;;;16.20;99.90;;;;;;5048111;28;20097;-73
2023/07/14 04:07:34;;;;;;;16.45;14.85;;;16.20;99.90;;;;;;5033009;28;20495;-72
2023/07/14 04:10:00;;;;;;;16.52;14.82;;;16.20;99.90;;;;;;5018823;28;20469;-73
2023/07/14 04:12:25;;;;;;;16.45;14.82;;;16.20;99.90;;;;;;5042027;28;20041;-73
2023/07/14 04:14:51;;;;;;;16.98;15.27;;;16.10;99.90;;;;;;5014732;28;20557;-72
2023/07/14 04:17:17;;;;;;;17.95;15.43;;;16.10;99.90;;;;;;5036635;28;21956;-73
2023/07/14 04:19:43;;;;;;;17.60;15.90;;;16.00;99.90;;;;;;5047802;28;20040;-74
2023/07/14 04:22:08;;;;;;;16.45;14.75;;;16.00;99.90;;;;;;5042127;28;20072;-73
2023/07/14 04:24:35;;;;;;;18.02;16.23;;;16.00;99.90;;;;;;5039666;28;20059;-71
2023/07/14 04:27:00;;;;;;;18.23;16.33;;;16.00;99.90;;;;;;5024050;28;20075;-73
2023/07/14 04:29:26;;;;;;;18.55;16.65;;;16.10;99.90;;;;;;5039824;28;20136;-72
2023/07/14 04:31:52;;;;;;;20.38;16.48;;;16.10;99.90;;;;;;5018240;28;20048;-72
2023/07/14 04:34:17;;;;;;;18.13;16.25;;;16.10;99.90;;;;;;5037297;28;20043;-73
2023/07/14 04:36:45;;;;;;;18.77;16.95;;;16.10;99.90;;;;;;5031966;28;21875;-73
2023/07/14 04:39:12;;;;;;;18.55;16.75;;;16.20;99.90;;;;;;5029451;28;20045;-73
2023/07/14 04:41:39;;;;;;;18.20;16.50;;;16.20;99.90;;;;;;5052216;28;20161;-73
2023/07/14 04:44:12;;;;;;;19.50;17.60;;;16.30;99.90;;;;;;5031527;28;21215;-73
2023/07/14 04:46:38;;;;;;;18.98;17.17;;;16.30;99.90;;;;;;5049173;28;20056;-73
2023/07/14 04:49:04;;;;;;;18.60;16.77;;;16.30;99.90;;;;;;5040822;28;20045;-72
2023/07/14 04:51:31;;;;;;;18.93;17.23;;;16.30;99.90;;;;;;5045629;28;20083;-72
2023/07/14 04:53:57;;;;;;;18.63;16.88;;;16.40;99.90;;;;;;5045257;28;20052;-72
2023/07/14 04:56:24;;;;;;;19.17;17.35;;;16.40;99.90;;;;;;5030038;28;20564;-73
2023/07/14 04:58:50;;;;;;;18.98;17.25;;;16.50;99.90;;;;;;5045938;28;22511;-72
2023/07/14 05:01:15;;;;;;;19.95;17.75;;;16.60;99.90;;;;;;5032565;28;20060;-74
2023/07/14 05:03:42;;;;;;;18.80;16.67;;;16.70;99.90;;;;;;5048227;28;20094;-73
2023/07/14 05:06:08;;;;;;;18.65;16.92;;;16.70;99.90;;;;;;5031465;28;21383;-73
2023/07/14 05:08:34;;;;;;;18.65;16.75;;;16.70;99.90;;;;;;5050200;28;20040;-73
2023/07/14 05:10:59;;;;;;;18.85;17.00;;;16.80;99.90;;;;;;5047996;28;20079;-74
2023/07/14 05:13:25;;;;;;;19.20;17.30;;;16.80;99.90;;;;;;5050202;28;20068;-73
2023/07/14 05:15:51;;;;;;;17.13;15.65;;;16.90;99.90;;;;;;5049899;28;20048;-73
2023/07/14 05:18:20;;;;;;;17.88;16.08;;;16.90;99.90;;;;;;5030124;28;20052;-73
2023/07/14 05:20:46;;;;;;;18.15;16.23;;;17.00;99.90;;;;;;5046424;28;21064;-73
2023/07/14 05:23:11;;;;;;;17.70;16.00;;;17.00;99.90;;;;;;5048215;28;20702;-72
2023/07/14 05:25:38;;;;;;;16.40;14.70;;;17.10;99.90;;;;;;5031605;28;20055;-73
2023/07/14 05:28:04;;;;;;;17.25;15.45;;;17.10;99.90;;;;;;5030630;28;20087;-73
2023/07/14 05:30:30;;;;;;;16.65;15.15;;;17.10;99.90;;;;;;5047736;28;20428;-72
2023/07/14 05:32:56;;;;;;;16.23;14.65;;;17.10;99.90;;;;;;5040724;28;20063;-72
2023/07/14 05:35:22;;;;;;;17.60;14.88;;;17.00;99.90;;;;;;5030486;28;20036;-72
2023/07/14 05:37:48;;;;;;;16.67;14.88;;;17.00;99.90;;;;;;5054734;28;20056;-72
2023/07/14 05:40:15;;;;;;;16.52;14.82;;;17.00;99.90;;;;;;5054942;28;20040;-73
2023/07/14 05:42:41;;;;;;;16.55;14.85;;;17.00;99.90;;;;;;5040259;28;20036;-73
2023/07/14 05:45:08;;;;;;;17.48;15.77;;;17.00;99.90;;;;;;5053212;28;20039;-73
2023/07/14 05:47:36;;;;;;;18.30;15.15;;;17.00;99.90;;;;;;5045586;28;20055;-73
2023/07/14 05:50:04;;;;;;;16.70;15.00;;;17.00;99.90;;;;;;5027640;28;20106;-70
2023/07/14 05:52:29;;;;;;;16.70;14.95;;;17.10;99.90;;;;;;5029410;28;20118;-71
2023/07/14 05:54:55;;;;;;;19.25;14.32;;;17.10;99.90;;;;;;5027891;28;20616;-70
2023/07/14 05:57:21;;;;;;;15.93;14.43;;;17.20;99.90;;;;;;5044247;28;20040;-71
2023/07/14 05:59:47;;;;;;;15.70;14.07;;;17.20;99.90;;;;;;5026574;28;20164;-71
2023/07/14 06:02:14;;;;;;;16.40;14.35;;;17.20;99.90;;;;;;5027661;28;20060;-72
2023/07/14 06:04:43;;;;;;;15.98;13.55;;;17.30;99.90;;;;;;5030734;28;20056;-71
2023/07/14 06:07:09;;;;;;;16.15;12.45;;;17.30;99.90;;;;;;5021799;28;20492;-71
2023/07/14 06:09:37;;;;;;;14.85;12.85;;;17.40;99.90;;;;;;5022543;28;20055;-71
2023/07/14 06:12:04;;;;;;;15.18;12.75;;;17.40;99.90;;;;;;5024349;28;20045;-72
2023/07/14 06:14:36;;;;;;;15.35;13.00;;;17.50;99.90;;;;;;5021778;28;20077;-71
2023/07/14 06:17:02;;;;;;;16.50;13.13;;;17.50;99.90;;;;;;5031685;28;20137;-72
2023/07/14 06:19:29;;;;;;;15.05;12.68;;;17.50;99.90;;;;;;5033141;28;20067;-72
2023/07/14 06:21:55;;;;;;;15.82;12.43;;;17.60;99.90;;;;;;5016840;28;20121;-72
2023/07/14 06:24:22;;;;;;;14.48;12.98;;;17.60;99.90;;;;;;5019571;28;20052;-73
2023/07/14 06:26:48;;;;;;;15.05;12.70;;;17.70;99.90;;;;;;5017321;28;20049;-72
2023/07/14 06:29:14;;;;;;;13.95;12.07;;;17.70;99.90;;;;;;5021388;28;20067;-72
2023/07/14 06:31:39;;;;;;;16.70;12.55;;;17.80;99.90;;;;;;5026145;28;20113;-72
2023/07/14 06:34:06;;;;;;;15.05;12.20;;;17.90;99.90;;;;;;5029054;28;20156;-72
2023/07/14 06:36:32;;;;;;;15.00;12.10;;;17.90;99.90;;;;;;5033809;28;20124;-72
2023/07/14 06:38:58;;;;;;;15.95;11.82;;;18.00;99.90;;;;;;5025861;28;20499;-72
2023/07/14 06:41:24;;;;;;;14.07;11.93;;;18.10;99.90;;;;;;5025546;28;21721;-72
2023/07/14 06:43:49;;;;;;;13.02;11.55;;;18.20;99.90;;;;;;5021028;28;20077;-72
2023/07/14 06:46:15;;;;;;;13.85;11.43;;;18.20;99.90;;;;;;5021759;28;20447;-73
2023/07/14 06:48:41;;;;;;;12.70;10.52;;;18.30;99.90;;;;;;5021377;28;20041;-73
2023/07/14 06:51:07;;;;;;;13.70;10.95;;;18.40;99.90;;;;;;5024202;28;20045;-73
2023/07/14 06:53:32;;;;;;;13.98;10.90;;;18.50;99.90;;;;;;5032306;28;20044;-72
2023/07/14 06:55:58;;;;;;;12.65;10.40;;;18.50;99.90;;;;;;5026941;28;20084;-73
2023/07/14 06:58:25;;;;;;;12.57;10.90;;;18.60;99.90;;;;;;5021456;28;20122;-72
2023/07/14 07:00:51;;;;;;;;;;;18.70;99.90;;;;;;5042623;28;20094;-73
2023/07/14 07:03:17;;;;;;;11.85;10.52;;;18.70;99.90;;;;;;5028639;28;20366;-73
2023/07/14 07:05:44;;;;;;;12.60;10.57;;;18.90;99.90;;;;;;5048525;28;21421;-75
2023/07/14 07:08:12;;;;;;;12.38;11.10;;;19.00;99.90;;;;;;5026143;28;20804;-75
2023/07/14 07:10:40;;;;;;;12.38;10.88;;;19.10;99.90;;;;;;5035805;28;20544;-75
2023/07/14 07:13:06;;;;;;;13.75;11.15;;;19.20;99.90;;;;;;5033395;28;21006;-75
2023/07/14 07:15:31;;;;;;;15.07;11.13;;;19.30;99.90;;;;;;5034156;28;20048;-74
2023/07/14 07:17:57;;;;;;;13.60;10.70;;;19.40;99.90;;;;;;5053874;28;20110;-74
2023/07/14 07:20:23;;;;;;;13.90;10.52;;;19.50;99.90;;;;;;5052806;28;20041;-75
2023/07/14 07:22:49;;;;;;;12.27;10.35;;;19.60;99.90;;;;;;5035888;28;20153;-75
2023/07/14 07:25:16;;;;;;;11.07;9.93;;;19.70;99.90;;;;;;5052965;28;20041;-74
2023/07/14 07:27:42;;;;;;;;;;;19.80;99.90;;;;;;5039874;28;20664;-75
2023/07/14 07:30:09;;;;;;;12.18;9.93;;;19.90;99.90;;;;;;5035989;28;19933;-74
2023/07/14 07:32:35;;;;;;;13.57;9.93;;;19.90;99.90;;;;;;5030055;28;20048;-75
2023/07/14 07:35:01;;;;;;;13.70;10.13;;;20.00;99.90;;;;;;5051361;28;20920;-76
2023/07/14 07:37:28;;;;;;;12.30;9.77;;;20.10;99.90;;;;;;5048188;28;20040;-75
2023/07/14 07:39:55;;;;;;;11.95;9.80;;;20.20;99.90;;;;;;5051845;28;20048;-75
2023/07/14 07:42:21;;;;;;;14.35;9.95;;;20.20;99.90;;;;;;5054349;28;20106;-75
2023/07/14 07:44:47;;;;;;;11.05;9.25;;;20.30;99.90;;;;;;5053867;28;20048;-77
2023/07/14 07:47:12;;;;;;;11.85;9.20;;;20.40;99.90;;;;;;5031300;28;20648;-76
2023/07/14 07:49:39;;;;;;;12.32;9.57;;;20.50;99.90;;;;;;5057337;28;20048;-78
2023/07/14 07:52:05;;;;;;;12.07;8.63;;;20.60;99.90;;;;;;5048724;28;20052;-76
2023/07/14 07:54:31;;;;;;;9.45;7.13;;;20.70;99.90;;;;;;5031192;28;20044;-76
2023/07/14 07:56:57;;;;;;;9.40;7.38;;;20.70;99.90;;;;;;5049863;28;20063;-76
2023/07/14 07:59:23;;;;;;;9.68;6.90;;;20.80;99.90;;;;;;5044148;28;20126;-78
2023/07/14 08:01:48;;;;;;;8.70;6.20;;;20.80;99.90;;;;;;5053836;28;20041;-76
2023/07/14 08:04:16;;;;;;;8.32;6.55;;;20.90;99.90;;;;;;5036386;28;20416;-78
2023/07/14 08:06:43;;;;;;;10.07;6.75;;;21.00;99.90;;;;;;5036954;28;20552;-76
2023/07/14 08:09:09;;;;;;;11.10;7.13;;;21.10;99.90;;;;;;5039084;28;20075;-76
2023/07/14 08:11:35;;;;;;;9.73;6.57;;;21.20;99.90;;;;;;5057954;28;20051;-76
2023/07/14 08:14:02;;;;;;;9.60;7.33;;;21.30;99.90;;;;;;5056822;28;20067;-75
2023/07/14 08:16:31;;;;;;;8.80;7.25;;;21.30;99.90;;;;;;5057667;28;20048;-77
2023/07/14 08:18:59;;;;;;;8.50;5.90;;;21.40;99.90;;;;;;5053672;28;20052;-77
2023/07/14 08:21:25;;;;;;;10.00;5.88;;;21.50;99.90;;;;;;5045287;28;20060;-76
2023/07/14 08:23:51;;;;;;;8.15;4.32;;;21.70;99.90;;;;;;5032387;28;20396;-78
2023/07/14 08:26:16;;;;;;;5.75;3.80;;;21.70;99.90;;;;;;5046440;28;20032;-77
2023/07/14 08:28:42;;;;;;;7.47;3.65;;;21.60;99.90;;;;;;5059382;28;20036;-76
2023/07/14 08:31:10;;;;;;;7.07;3.45;;;21.60;99.90;;;;;;5060240;28;20036;-76
2023/07/14 08:33:36;;;;;;;7.32;3.67;;;21.60;99.90;;;;;;5054718;28;20086;-77
2023/07/14 08:36:04;;;;;;;7.40;3.47;;;21.60;99.90;;;;;;5038828;28;20049;-76
2023/07/14 08:38:33;;;;;;;;;;;21.60;99.90;;;;;;5045687;28;20040;-76
2023/07/14 08:41:24;;;;;;;6.03;3.00;;;21.60;99.90;;;;;;5050671;28;20453;-76
2023/07/14 08:43:58;;;;;;;7.68;3.13;;;21.60;99.90;;;;;;5057580;28;20071;-74
2023/07/14 08:46:49;;;;;;;7.65;3.38;;;21.60;99.90;;;;;;5041287;28;20052;-74
2023/07/14 08:49:20;;;;;;;6.20;3.38;;;21.80;99.90;;;;;;5042273;28;20063;-74
2023/07/14 08:51:55;;;;;;;6.63;3.40;;;21.90;99.90;;;;;;5061544;28;20081;-74
2023/07/14 08:54:24;;;;;;;3.92;3.20;;;22.00;99.90;;;;;;5053841;28;20055;-74
2023/07/14 08:56:52;;;;;;;9.35;3.72;;;22.20;99.90;;;;;;5049487;28;20759;-74
2023/07/14 08:59:40;;;;;;;8.77;3.85;;;22.20;99.90;;;;;;5055954;28;20047;-74
2023/07/14 09:02:21;;;;;;;5.82;4.03;;;22.30;99.90;;;;;;5027406;28;20053;-74
2023/07/14 09:05:00;;;;;;;6.85;3.97;;;22.20;99.90;;;;;;5056969;28;20133;-74
2023/07/14 09:07:26;;;;;;;8.55;4.30;;;22.20;99.90;;;;;;5057924;28;20059;-76
2023/07/14 09:09:52;;;;;;;5.95;4.03;;;22.20;99.90;;;;;;5050219;28;20416;-76
2023/07/14 09:12:28;;;;;;;6.97;3.30;;;22.30;99.90;;;;;;5047780;28;20045;-78
2023/07/14 09:15:00;;;;;;;10.68;3.60;;;22.40;99.90;;;;;;5026678;28;20040;-80
2023/07/14 09:17:29;;;;;;;6.10;3.25;;;22.50;99.90;;;;;;5049764;28;20079;-79
2023/07/14 09:20:08;;;;;;;5.40;3.17;;;22.60;99.90;;;;;;5055233;28;20064;-78
2023/07/14 09:22:54;;;;;;;5.03;2.95;;;22.60;99.90;;;;;;5054572;28;20128;-78
2023/07/14 09:25:38;;;;;;;5.13;2.80;;;22.60;99.90;;;;;;5055771;28;20131;-79
2023/07/14 09:28:15;;;;;;;5.38;3.30;;;22.80;99.90;;;;;;5039070;28;20135;-79
2023/07/14 09:30:45;;;;;;;6.43;3.20;;;22.90;99.90;;;;;;5043683;28;20049;-80
2023/07/14 09:33:15;;;;;;;4.93;3.00;;;22.90;99.90;;;;;;5042713;28;20040;-78
2023/07/14 09:35:44;;;;;;;4.75;3.00;;;22.80;99.90;;;;;;5056543;28;20384;-78
2023/07/14 09:38:34;;;;;;;4.40;2.72;;;22.60;99.90;;;;;;5059443;28;20060;-77
2023/07/14 09:41:02;;;;;;;7.07;2.70;;;22.60;99.90;;;;;;5044566;28;20063;-79
2023/07/14 09:43:28;;;;;;;5.43;2.58;;;22.50;99.90;;;;;;5056614;28;20302;-80
2023/07/14 09:45:55;;;;;;;5.85;3.03;;;22.40;99.90;;;;;;5050142;28;20033;-79
2023/07/14 09:48:34;;;;;;;6.93;3.55;;;22.40;99.90;;;;;;5035373;28;20052;-78
2023/07/14 09:51:20;;;;;;;4.90;3.10;;;22.50;99.90;;;;;;5048799;28;20049;-78
2023/07/14 09:54:11;;;;;;;5.75;3.10;;;22.50;99.90;;;;;;5051732;28;20411;-77
2023/07/14 09:56:42;;;;;;;7.13;3.22;;;22.50;99.90;;;;;;5054224;28;20515;-80
2023/07/14 09:59:21;;;;;;;4.32;2.90;;;22.50;99.90;;;;;;5056394;28;20399;-77
2023/07/14 10:01:58;;;;;;;6.05;3.13;;;22.60;99.90;;;;;;5060213;28;20048;-79
2023/07/14 10:04:30;;;;;;;5.68;2.80;;;22.70;99.90;;;;;;5054396;28;20131;-78
2023/07/14 10:07:25;;;;;;;6.50;3.20;;;22.70;99.90;;;;;;5049708;28;20056;-81
2023/07/14 10:10:07;;;;;;;6.55;3.50;;;22.70;99.90;;;;;;5048167;28;20097;-78
2023/07/14 10:12:51;;;;;;;7.05;3.38;;;22.60;99.90;;;;;;5054593;28;20072;-84
2023/07/14 10:15:31;;;;;;;4.95;2.95;;;22.60;99.90;;;;;;5057969;28;20091;-77
2023/07/14 10:18:00;;;;;;;6.50;3.20;;;22.50;99.90;;;;;;5055312;28;20041;-79
2023/07/14 10:20:27;;;;;;;5.07;3.10;;;22.50;99.90;;;;;;5034703;28;20048;-78
2023/07/14 10:22:54;;;;;;;;;;;22.50;99.90;;;;;;5050655;28;20032;-82
2023/07/14 10:25:21;;;;;;;4.82;2.83;;;22.50;99.90;;;;;;5055983;28;20369;-80
2023/07/14 10:27:56;;;;;;;5.80;3.17;;;22.50;99.90;;;;;;5044462;28;20043;-77
2023/07/14 10:30:47;;;;;;;6.45;3.17;;;22.60;99.90;;;;;;5056037;28;20411;-81
2023/07/14 10:33:36;;;;;;;5.45;3.35;;;22.80;99.90;;;;;;5035879;28;20143;-75
2023/07/14 10:36:13;;;;;;;6.80;3.50;;;22.80;99.90;;;;;;5026153;28;20044;-75
2023/07/14 10:38:51;;;;;;;4.57;3.20;;;22.80;99.90;;;;;;5040411;28;20503;-75
2023/07/14 10:41:20;;;;;;;7.30;3.35;;;22.70;99.90;;;;;;5040011;28;20060;-76
2023/07/14 10:43:56;;;;;;;6.38;3.40;;;22.70;99.90;;;;;;5050151;28;20048;-76
2023/07/14 10:46:35;;;;;;;7.13;3.00;;;22.90;99.90;;;;;;5048742;28;20063;-76
2023/07/14 10:49:15;;;;;;;7.40;3.83;;;23.00;99.90;;;;;;5035413;28;20295;-76
2023/07/14 10:51:53;;;;;;;6.38;3.35;;;23.10;99.90;;;;;;5050850;28;20098;-76
2023/07/14 10:54:19;;;;;;;5.18;2.97;;;23.10;99.90;;;;;;5053144;28;20091;-76
2023/07/14 10:57:19;;;;;;;5.50;3.33;;;23.10;99.90;;;;;;5037821;28;20123;-72
2023/07/14 10:59:51;;;;;;;7.03;3.20;;;23.00;99.90;;;;;;5036786;28;20106;-71
2023/07/14 11:02:34;;;;;;;5.32;2.83;;;22.90;99.90;;;;;;5027550;28;20040;-74
2023/07/14 11:05:08;;;;;;;5.53;3.10;;;23.00;99.90;;;;;;5055740;28;20403;-74
2023/07/14 11:07:34;;;;;;;10.73;2.63;;;23.10;99.90;;;;;;5039365;28;20066;-73
2023/07/14 11:10:03;;;;;;;7.07;3.10;;;23.20;99.90;;;;;;5040007;28;20052;-72
2023/07/14 11:12:34;;;;;;;3.60;2.55;;;23.20;99.90;;;;;;5048155;28;20083;-74
2023/07/14 11:15:11;;;;;;;4.75;3.00;;;23.20;99.90;;;;;;5052737;28;20484;-74
2023/07/14 11:17:37;;;;;;;;;;;23.20;99.90;;;;;;5025123;28;20057;-74
2023/07/14 11:20:30;;;;;;;10.23;2.83;;;23.10;99.90;;;;;;5047048;28;19925;-74
2023/07/14 11:22:59;;;;;;;5.97;3.15;;;23.10;99.90;;;;;;5029132;28;20067;-74
2023/07/14 11:25:43;;;;;;;7.47;2.63;;;23.00;99.90;;;;;;5050974;28;20438;-75
2023/07/14 11:28:41;;;;;;;5.22;3.17;;;23.10;99.90;;;;;;5049695;28;20048;-71
2023/07/14 11:31:36;;;;;;;5.88;3.15;;;23.20;99.90;;;;;;5036752;28;20139;-76
2023/07/14 11:34:07;;;;;;;6.38;3.22;;;23.40;99.90;;;;;;5044121;28;20057;-76
2023/07/14 11:36:43;;;;;;;7.05;3.40;;;23.60;99.90;;;;;;5049612;28;20054;-75
2023/07/14 11:39:39;;;;;;;5.78;3.00;;;23.60;99.90;;;;;;5032393;28;20113;-73
2023/07/14 11:42:13;;;;;;;8.82;2.95;;;23.80;99.80;;;;;;5043479;28;20049;-73
2023/07/14 11:44:40;;;;;;;4.90;3.13;;;24.00;99.90;;;;;;5024589;28;20435;-75
2023/07/14 11:47:19;;;;;;;5.25;3.10;;;24.10;99.60;;;;;;5040236;28;20403;-74
2023/07/14 11:49:44;;;;;;;5.57;3.25;;;24.20;99.40;;;;;;5046615;28;20456;-74
2023/07/14 11:52:22;;;;;;;5.25;3.10;;;24.20;99.10;;;;;;5048402;28;20158;-74
2023/07/14 11:55:03;;;;;;;5.70;3.00;;;24.20;99.20;;;;;;5032352;28;20044;-74
2023/07/14 11:57:45;;;;;;;6.07;2.80;;;24.10;99.00;;;;;;5049942;28;20048;-76
2023/07/14 12:00:14;;;;;;;5.88;2.90;;;24.00;99.70;;;;;;5031840;28;20057;-76
2023/07/14 12:02:46;;;;;;;4.85;3.33;;;24.10;99.50;;;;;;5027292;28;20060;-75
2023/07/14 12:05:15;;;;;;;6.25;3.08;;;24.20;99.30;;;;;;5034128;28;20052;-76
2023/07/14 12:08:07;;;;;;;7.32;3.15;;;24.20;99.10;;;;;;5027750;28;20558;-77
2023/07/14 12:10:38;;;;;;;6.10;2.80;;;24.40;99.30;;;;;;5027947;28;20063;-78
2023/07/14 12:13:20;;;;;;;6.20;3.25;;;24.50;98.90;;;;;;5028920;28;20087;-74
2023/07/14 12:16:11;;;;;;;6.47;3.33;;;24.60;98.10;;;;;;5044877;28;20053;-72
2023/07/14 12:19:01;;;;;;;6.57;3.83;;;24.50;97.60;;;;;;5027895;28;20052;-73
2023/07/14 12:21:41;;;;;;;6.00;3.72;;;24.50;97.30;;;;;;5027033;28;20131;-73
2023/07/14 12:24:17;;;;;;;5.25;2.97;;;24.40;98.00;;;;;;5023178;28;20057;-73
2023/07/14 12:27:04;;;;;;;8.05;3.15;;;24.30;98.00;;;;;;5034130;28;20097;-73
2023/07/14 12:29:29;;;;;;;8.02;2.92;;;24.40;98.90;;;;;;5026649;28;20126;-72
2023/07/14 12:31:56;;;;;;;5.47;2.72;;;24.60;98.30;;;;;;5030462;28;21048;-72
2023/07/14 12:34:27;;;;;;;7.07;3.28;;;24.60;97.90;;;;;;5027293;28;20054;-72
2023/07/14 12:36:53;;;;;;;4.65;3.20;;;24.70;98.20;;;;;;5026958;28;20516;-74
2023/07/14 12:39:18;;;;;;;6.55;2.97;;;24.70;97.70;;;;;;5032568;28;20043;-73
2023/07/14 12:41:49;;;;;;;6.50;3.38;;;24.60;97.20;;;;;;5056496;28;20047;-74
2023/07/14 12:44:32;;;;;;;6.65;3.40;;;24.50;97.30;;;;;;5057841;28;20044;-74
2023/07/14 12:46:59;;;;;;;5.47;3.40;;;24.40;97.40;;;;;;5031079;28;20170;-73
2023/07/14 12:49:38;;;;;;;7.57;3.22;;;24.20;97.50;;;;;;5032428;28;20052;-74
2023/07/14 12:52:16;;;;;;;6.30;3.20;;;24.20;97.30;;;;;;5055336;28;20048;-74
2023/07/14 12:54:44;;;;;;;6.75;3.70;;;24.10;97.50;;;;;;5033678;28;20065;-74